Time;durP1;ratioP1;P1;durP2;ratioP2;P2;SDS_P1;SDS_P2;PMS_P1;PMS_P2;Temp;Humidity;BMP_temperature;BMP_pressure;BME280_temperature;BME280_humidity;BME280_pressure;Samples;Min_cycle;Max_cycle;Signal;HPM_P1;HPM_P2
2022/03/05 00:01:15;;;;;;;56.35;30.30;;;-1.10;99.90;;;-146.41;100.00;57768.22;4956137;28;20059;-67
2022/03/05 00:03:43;;;;;;;51.45;28.38;;;-1.20;99.90;;;-146.41;100.00;57768.22;4958284;28;20059;-67
2022/03/05 00:06:10;;;;;;;58.00;29.83;;;-1.20;99.90;;;-146.41;100.00;57768.22;4940024;28;20201;-67
2022/03/05 00:08:37;;;;;;;61.80;31.05;;;-1.20;99.90;;;-146.41;100.00;57768.22;4956789;28;20091;-67
2022/03/05 00:11:04;;;;;;;53.92;29.30;;;-1.30;99.90;;;-146.41;100.00;57768.22;4959540;28;20120;-67
2022/03/05 00:13:31;;;;;;;58.97;29.88;;;-1.40;99.90;;;-146.41;100.00;57768.22;4958124;28;20134;-67
2022/03/05 00:15:58;;;;;;;62.40;30.95;;;-1.40;99.90;;;-146.41;100.00;57768.22;4958714;28;20322;-67
2022/03/05 00:18:25;;;;;;;53.72;29.75;;;-1.50;99.90;;;-146.41;100.00;57768.22;4958395;28;20130;-67
2022/03/05 00:20:53;;;;;;;57.88;31.20;;;-1.50;99.90;;;-146.41;100.00;57768.22;4956720;28;20050;-67
2022/03/05 00:23:21;;;;;;;55.47;30.23;;;-1.50;99.90;;;-146.41;100.00;57768.22;4958259;28;20110;-67
2022/03/05 00:25:48;;;;;;;59.72;31.30;;;-1.50;99.90;;;-146.41;100.00;57768.22;4961453;28;20555;-67
2022/03/05 00:28:15;;;;;;;55.92;30.92;;;-1.50;99.90;;;-146.41;100.00;57768.22;4961787;28;20058;-67
2022/03/05 00:30:43;;;;;;;63.50;31.92;;;;;;;-146.41;100.00;57768.22;4962562;28;20559;-67
2022/03/05 00:33:10;;;;;;;62.53;31.55;;;-1.60;99.90;;;-146.41;100.00;57768.22;4963731;28;20081;-67
2022/03/05 00:35:37;;;;;;;56.60;29.77;;;-1.60;99.90;;;-146.41;100.00;57768.22;4959224;28;20137;-67
2022/03/05 00:38:04;;;;;;;58.40;32.05;;;-1.60;99.90;;;-146.41;100.00;57768.22;4961540;28;20130;-67
2022/03/05 00:40:31;;;;;;;56.20;29.35;;;-1.60;99.90;;;-146.41;100.00;57768.22;4961708;28;20138;-67
2022/03/05 00:42:58;;;;;;;59.33;30.48;;;-1.60;99.90;;;-146.41;100.00;57768.22;4961421;28;20078;-67
2022/03/05 00:45:25;;;;;;;59.05;30.00;;;-1.60;99.90;;;-146.41;100.00;57768.22;4959826;28;20055;-67
2022/03/05 00:47:52;;;;;;;62.45;32.45;;;-1.60;99.90;;;-146.41;100.00;57768.22;4961415;28;20494;-67
2022/03/05 00:50:20;;;;;;;57.95;30.63;;;-1.60;99.90;;;-146.41;100.00;57768.22;4962325;28;20098;-67
2022/03/05 00:52:47;;;;;;;58.90;32.13;;;-1.60;99.90;;;-146.41;100.00;57768.22;4960007;28;20090;-67
2022/03/05 00:55:14;;;;;;;56.10;30.20;;;-1.50;99.90;;;-146.41;100.00;57768.22;4960789;28;20081;-67
2022/03/05 00:57:41;;;;;;;59.28;30.10;;;-1.50;99.90;;;-146.41;100.00;57768.22;4962649;28;20478;-67
2022/03/05 01:00:11;;;;;;;60.15;31.52;;;-1.50;99.90;;;-146.41;100.00;57768.22;4954505;28;20488;-67
2022/03/05 01:02:41;;;;;;;62.00;30.52;;;-1.50;99.90;;;-146.41;100.00;57768.22;4961405;28;20074;-67
2022/03/05 01:05:10;;;;;;;65.53;32.33;;;-1.50;99.90;;;-146.41;100.00;57768.22;4949346;28;20054;-67
2022/03/05 01:07:38;;;;;;;66.22;32.10;;;-1.50;99.90;;;-146.41;100.00;57768.22;4957600;28;20058;-67
2022/03/05 01:10:06;;;;;;;60.55;31.05;;;-1.50;99.90;;;-146.41;100.00;57768.22;4960989;28;20137;-67
2022/03/05 01:12:34;;;;;;;61.88;31.38;;;-1.40;99.90;;;-146.41;100.00;57768.22;4959598;28;20465;-67
2022/03/05 01:15:03;;;;;;;60.25;30.38;;;-1.50;99.90;;;-146.41;100.00;57768.22;4959418;28;20181;-67
2022/03/05 01:17:30;;;;;;;58.83;30.80;;;-1.40;99.90;;;-146.41;100.00;57768.22;4960525;28;20070;-67
2022/03/05 01:19:57;;;;;;;59.33;31.23;;;-1.40;99.90;;;-146.41;100.00;57768.22;4958842;28;20133;-67
2022/03/05 01:22:25;;;;;;;62.38;31.42;;;-1.30;99.90;;;-146.41;100.00;57768.22;4956770;28;20134;-67
2022/03/05 01:24:52;;;;;;;62.28;30.83;;;-1.40;99.90;;;-146.41;100.00;57768.22;4953930;28;20138;-67
2022/03/05 01:27:21;;;;;;;57.30;30.60;;;-1.30;99.90;;;-146.41;100.00;57768.22;4958018;28;20051;-67
2022/03/05 01:29:49;;;;;;;63.17;31.00;;;-1.30;99.90;;;-146.41;100.00;57768.22;4959298;28;20089;-67
2022/03/05 01:32:17;;;;;;;61.13;29.58;;;-1.30;99.90;;;-146.41;100.00;57768.22;4956602;28;20279;-67
2022/03/05 01:34:43;;;;;;;49.42;26.35;;;-1.30;99.90;;;-146.41;100.00;57768.22;4941159;28;20130;-67
2022/03/05 01:37:11;;;;;;;57.97;29.45;;;-1.30;99.90;;;-146.41;100.00;57768.22;4958254;28;20066;-68
2022/03/05 01:39:38;;;;;;;53.25;27.98;;;-1.30;99.90;;;-146.41;100.00;57768.22;4954747;28;20126;-67
2022/03/05 01:42:05;;;;;;;53.60;27.60;;;-1.30;99.90;;;-146.41;100.00;57768.22;4957770;28;20649;-67
2022/03/05 01:44:32;;;;;;;59.55;29.58;;;-1.30;99.90;;;-146.41;100.00;57768.22;4958664;28;20565;-67
2022/03/05 01:47:04;;;;;;;53.00;27.65;;;-1.40;99.90;;;-146.41;100.00;57768.22;4961468;28;20065;-67
2022/03/05 01:49:31;;;;;;;56.42;27.73;;;-1.40;99.90;;;-146.41;100.00;57768.22;4953083;28;20062;-67
2022/03/05 01:51:58;;;;;;;54.45;28.40;;;-1.40;99.90;;;-146.41;100.00;57768.22;4963649;28;20137;-67
2022/03/05 01:54:26;;;;;;;57.78;29.40;;;-1.50;99.90;;;-146.41;100.00;57768.22;4961957;28;20181;-67
2022/03/05 01:56:54;;;;;;;64.35;31.20;;;-1.60;99.90;;;-146.41;100.00;57768.22;4965212;28;20174;-67
2022/03/05 01:59:22;;;;;;;62.35;30.67;;;-1.50;99.90;;;-146.41;100.00;57768.22;4959742;28;20083;-68
2022/03/05 02:01:49;;;;;;;66.60;31.23;;;-1.50;99.90;;;-146.41;100.00;57768.22;4959240;28;20047;-67
2022/03/05 02:04:17;;;;;;;62.10;30.45;;;-1.50;99.90;;;-146.41;100.00;57768.22;4963124;28;20089;-67
2022/03/05 02:06:44;;;;;;;61.70;30.02;;;-1.40;99.90;;;-146.41;100.00;57768.22;4955320;28;20137;-67
2022/03/05 02:09:11;;;;;;;62.75;29.30;;;-1.50;99.90;;;-146.41;100.00;57768.22;4962484;28;20610;-67
2022/03/05 02:11:39;;;;;;;61.03;29.95;;;-1.50;99.90;;;-146.41;100.00;57768.22;4960860;28;20055;-67
2022/03/05 02:14:06;;;;;;;58.70;29.10;;;-1.60;99.90;;;-146.41;100.00;57768.22;4958658;28;20137;-67
2022/03/05 02:16:34;;;;;;;61.00;30.08;;;-1.60;99.90;;;-146.41;100.00;57768.22;4945834;28;20044;-67
2022/03/05 02:19:03;;;;;;;60.67;29.08;;;-1.70;99.90;;;-146.41;100.00;57768.22;4960723;28;20043;-67
2022/03/05 02:21:30;;;;;;;62.33;31.30;;;-1.80;99.90;;;-146.41;100.00;57768.22;4948513;28;20042;-67
2022/03/05 02:23:57;;;;;;;61.95;30.77;;;-1.80;99.90;;;-146.41;100.00;57768.22;4959938;28;20531;-67
2022/03/05 02:26:24;;;;;;;60.05;30.08;;;-1.80;99.90;;;-146.41;100.00;57768.22;4963030;28;20051;-67
2022/03/05 02:28:51;;;;;;;66.22;30.63;;;-1.80;99.90;;;-146.41;100.00;57768.22;4954902;28;20075;-67
2022/03/05 02:31:18;;;;;;;66.03;30.85;;;-1.90;99.90;;;-146.41;100.00;57768.22;4962038;28;20130;-67
2022/03/05 02:33:46;;;;;;;57.80;29.38;;;-1.90;99.90;;;-146.41;100.00;57768.22;4958947;28;20142;-67
2022/03/05 02:36:13;;;;;;;63.72;30.75;;;-1.90;99.90;;;-146.41;100.00;57768.22;4961396;28;20124;-67
2022/03/05 02:38:41;;;;;;;59.95;28.88;;;-2.00;99.90;;;-146.41;100.00;57768.22;4960538;28;20082;-67
2022/03/05 02:41:08;;;;;;;61.47;29.63;;;-1.90;99.90;;;-146.41;100.00;57768.22;4955757;28;20098;-67
2022/03/05 02:43:35;;;;;;;67.95;32.20;;;-2.00;99.90;;;-146.41;100.00;57768.22;4962582;28;20429;-67
2022/03/05 02:46:02;;;;;;;63.05;31.70;;;-2.10;99.90;;;-146.41;100.00;57768.22;4959357;28;20116;-67
2022/03/05 02:48:29;;;;;;;64.40;32.13;;;-2.10;99.90;;;-146.41;100.00;57768.22;4955089;28;20058;-67
2022/03/05 02:50:57;;;;;;;60.90;29.35;;;-2.10;99.90;;;-146.41;100.00;57768.22;4957961;28;20051;-67
2022/03/05 02:53:24;;;;;;;65.55;31.05;;;-2.20;99.90;;;-146.41;100.00;57768.22;4959659;28;20592;-67
2022/03/05 02:55:51;;;;;;;59.85;29.27;;;-2.20;99.90;;;-146.41;100.00;57768.22;4958495;28;20125;-67
2022/03/05 02:58:18;;;;;;;59.28;29.33;;;-2.30;99.90;;;-146.41;100.00;57768.22;4960124;28;20065;-67
2022/03/05 03:00:45;;;;;;;63.90;30.95;;;-2.30;99.90;;;-146.41;100.00;57768.22;4961232;28;20137;-67
2022/03/05 03:03:13;;;;;;;57.95;29.08;;;-2.30;99.90;;;-146.41;100.00;57768.22;4960433;28;20113;-67
2022/03/05 03:05:40;;;;;;;66.35;29.15;;;-2.30;99.90;;;-146.41;100.00;57768.22;4960400;28;20049;-67
2022/03/05 03:08:08;;;;;;;62.70;29.77;;;-2.20;99.90;;;-146.41;100.00;57768.22;4943429;28;20125;-67
2022/03/05 03:10:35;;;;;;;63.08;30.33;;;-2.20;99.90;;;-146.41;100.00;57768.22;4961377;28;20122;-67
2022/03/05 03:13:02;;;;;;;63.45;29.73;;;-2.10;99.90;;;-146.41;100.00;57768.22;4960621;28;20110;-67
2022/03/05 03:15:29;;;;;;;61.47;29.08;;;-2.10;99.90;;;-146.41;100.00;57768.22;4961633;28;20134;-67
2022/03/05 03:17:56;;;;;;;63.78;29.42;;;-2.00;99.90;;;-146.41;100.00;57768.22;4958541;28;20130;-67
2022/03/05 03:20:26;;;;;;;63.60;28.60;;;-2.00;99.90;;;-146.41;100.00;57768.22;4957820;28;20488;-67
2022/03/05 03:22:54;;;;;;;66.45;30.70;;;-2.10;99.90;;;-146.41;100.00;57768.22;4963180;28;20126;-67
2022/03/05 03:25:22;;;;;;;60.80;29.63;;;-2.00;99.90;;;-146.41;100.00;57768.22;4956978;28;20162;-67
2022/03/05 03:27:50;;;;;;;57.13;28.55;;;-2.00;99.90;;;-146.41;100.00;57768.22;4947605;28;20125;-67
2022/03/05 03:30:18;;;;;;;61.10;29.00;;;-2.10;99.90;;;-146.41;100.00;57768.22;4956109;28;20529;-67
2022/03/05 03:32:46;;;;;;;59.60;29.30;;;-2.20;99.90;;;-146.41;100.00;57768.22;4961208;28;20130;-67
2022/03/05 03:35:15;;;;;;;60.40;27.73;;;-2.20;99.90;;;-146.41;100.00;57768.22;4960538;28;20130;-67
2022/03/05 03:37:44;;;;;;;62.05;28.88;;;-2.10;99.90;;;-146.41;100.00;57768.22;4946753;28;20209;-67
2022/03/05 03:40:14;;;;;;;66.53;29.50;;;-2.20;99.90;;;-146.41;100.00;57768.22;4941800;28;20047;-67
2022/03/05 03:42:44;;;;;;;66.55;29.83;;;-2.20;99.90;;;-146.41;100.00;57768.22;4956696;28;20122;-67
2022/03/05 03:45:12;;;;;;;60.97;27.95;;;-2.30;99.90;;;-146.41;100.00;57768.22;4958467;28;20178;-67
2022/03/05 03:47:41;;;;;;;60.70;29.00;;;-2.30;99.90;;;-146.41;100.00;57768.22;4959998;28;20086;-67
2022/03/05 03:50:11;;;;;;;59.28;28.38;;;-2.30;99.90;;;-146.41;100.00;57768.22;4959603;28;20046;-67
2022/03/05 03:52:38;;;;;;;56.88;26.90;;;-2.40;99.90;;;-146.41;100.00;57768.22;4958299;28;20418;-67
2022/03/05 03:55:08;;;;;;;57.78;26.77;;;-2.40;99.90;;;-146.41;100.00;57768.22;4957839;28;20078;-67
2022/03/05 03:57:35;;;;;;;57.08;27.50;;;-2.50;99.90;;;-146.41;100.00;57768.22;4950763;28;20146;-67
2022/03/05 04:00:05;;;;;;;61.28;28.58;;;-2.60;99.90;;;-146.41;100.00;57768.22;4939839;28;20144;-67
2022/03/05 04:02:32;;;;;;;66.25;28.65;;;-2.60;99.90;;;-146.41;100.00;57768.22;4957763;28;20467;-67
2022/03/05 04:04:59;;;;;;;58.72;27.08;;;-2.60;99.90;;;-146.41;100.00;57768.22;4960958;28;20062;-67
2022/03/05 04:10:12;;;;;;;56.95;27.13;;;-2.50;99.90;;;-146.41;100.00;57768.22;4956262;28;20109;-67
2022/03/05 04:12:39;;;;;;;55.90;26.38;;;-2.50;99.90;;;-146.41;100.00;57768.22;4954336;28;20055;-67
2022/03/05 04:15:08;;;;;;;53.13;25.55;;;-2.50;99.90;;;-146.41;100.00;57768.22;4962493;28;20142;-67
2022/03/05 04:17:35;;;;;;;48.97;23.25;;;-2.60;99.90;;;-146.41;100.00;57768.22;4957102;28;20078;-67
2022/03/05 04:20:03;;;;;;;57.10;26.60;;;-2.60;99.90;;;-146.41;100.00;57768.22;4957337;28;20133;-67
2022/03/05 04:22:31;;;;;;;55.85;25.38;;;-2.60;99.90;;;-146.41;100.00;57768.22;4957620;28;20078;-67
2022/03/05 04:24:58;;;;;;;57.40;28.13;;;-2.70;99.90;;;-146.41;100.00;57768.22;4959131;28;20127;-67
2022/03/05 04:27:25;;;;;;;60.92;27.95;;;-2.70;99.90;;;-146.41;100.00;57768.22;4955308;28;20059;-67
2022/03/05 04:29:52;;;;;;;56.45;25.77;;;-2.60;99.90;;;-146.41;100.00;57768.22;4946731;28;20129;-67
2022/03/05 04:32:19;;;;;;;57.90;27.52;;;-2.50;99.90;;;-146.41;100.00;57768.22;4955059;28;20505;-67
2022/03/05 04:34:46;;;;;;;51.72;24.73;;;-2.50;99.90;;;-146.41;100.00;57768.22;4958764;28;20469;-67
2022/03/05 04:37:13;;;;;;;49.00;24.33;;;-2.50;99.90;;;-146.41;100.00;57768.22;4955928;28;20582;-67
2022/03/05 04:39:41;;;;;;;51.72;25.05;;;-2.60;99.90;;;-146.41;100.00;57768.22;4959282;28;20066;-67
2022/03/05 04:42:08;;;;;;;54.33;25.17;;;-2.60;99.90;;;-146.41;100.00;57768.22;4957259;28;20498;-67
2022/03/05 04:44:35;;;;;;;55.13;26.20;;;-2.70;99.90;;;-146.41;100.00;57768.22;4957902;28;20047;-67
2022/03/05 04:47:03;;;;;;;54.58;24.30;;;-2.70;99.90;;;-146.41;100.00;57768.22;4958566;28;20046;-67
2022/03/05 04:49:30;;;;;;;48.70;23.85;;;-2.70;99.90;;;-146.41;100.00;57768.22;4954161;28;20055;-67
2022/03/05 04:51:57;;;;;;;54.67;24.55;;;-2.80;99.90;;;-146.41;100.00;57768.22;4960259;28;20082;-67
2022/03/05 04:54:29;;;;;;;53.47;25.02;;;-2.90;99.90;;;-146.41;100.00;57768.22;4957050;28;20051;-67
2022/03/05 04:56:57;;;;;;;57.03;25.90;;;-2.90;99.90;;;-146.41;100.00;57768.22;4956235;28;20134;-67
2022/03/05 04:59:24;;;;;;;53.20;25.00;;;-2.80;99.90;;;-146.41;100.00;57768.22;4956573;28;20162;-67
2022/03/05 05:01:52;;;;;;;55.55;24.60;;;-2.80;99.90;;;-146.41;100.00;57768.22;4958863;28;20047;-67
2022/03/05 05:04:19;;;;;;;53.72;25.88;;;-2.80;99.90;;;-146.41;100.00;57768.22;4953121;28;20391;-67
2022/03/05 05:06:46;;;;;;;50.17;24.27;;;-2.90;99.90;;;-146.41;100.00;57768.22;4957281;28;20133;-67
2022/03/05 05:09:14;;;;;;;48.53;23.73;;;-2.80;99.90;;;-146.41;100.00;57768.22;4944897;28;20105;-68
2022/03/05 05:11:44;;;;;;;51.60;24.67;;;-2.90;99.90;;;-146.41;100.00;57768.22;4963780;28;20047;-67
2022/03/05 05:14:11;;;;;;;58.95;27.30;;;-2.90;99.90;;;-146.41;100.00;57768.22;4951844;28;20057;-67
2022/03/05 05:16:39;;;;;;;54.58;25.88;;;-3.00;99.90;;;-146.41;100.00;57768.22;4962856;28;20690;-67
2022/03/05 05:22:03;;;;;;;56.22;24.77;;;-2.80;99.90;;;-146.41;100.00;57768.22;4959568;28;20205;-67
2022/03/05 05:24:34;;;;;;;53.17;24.00;;;-2.80;99.90;;;-146.41;100.00;57768.22;4946789;28;20138;-67
2022/03/05 05:27:03;;;;;;;51.65;25.00;;;-2.80;99.90;;;-146.41;100.00;57768.22;4947501;28;20058;-67
2022/03/05 05:29:31;;;;;;;57.65;25.60;;;-2.70;99.90;;;-146.41;100.00;57768.22;4959403;28;20138;-67
2022/03/05 05:32:10;;;;;;;55.30;24.85;;;-2.90;99.90;;;-146.41;100.00;57768.22;4948731;28;20092;-67
2022/03/05 05:34:39;;;;;;;53.63;25.45;;;-2.80;99.90;;;-146.41;100.00;57768.22;4960163;28;20061;-67
2022/03/05 05:37:13;;;;;;;51.30;24.77;;;-2.80;99.90;;;-146.41;100.00;57768.22;4958541;28;20149;-67
2022/03/05 05:39:41;;;;;;;54.10;25.75;;;-2.80;99.90;;;-146.41;100.00;57768.22;4959433;28;20467;-67
2022/03/05 05:42:08;;;;;;;52.05;24.35;;;-2.90;99.90;;;-146.41;100.00;57768.22;4960147;28;20524;-67
2022/03/05 05:44:35;;;;;;;51.28;24.85;;;-2.90;99.90;;;-146.41;100.00;57768.22;4947897;28;20624;-67
2022/03/05 05:47:05;;;;;;;59.42;27.02;;;-3.00;99.90;;;-146.41;100.00;57768.22;4957735;28;20055;-67
2022/03/05 05:49:32;;;;;;;52.85;24.42;;;-3.10;99.90;;;-146.41;100.00;57768.22;4958976;28;20090;-67
2022/03/05 05:52:00;;;;;;;56.20;25.27;;;-3.10;99.90;;;-146.41;100.00;57768.22;4956308;28;20133;-67
2022/03/05 05:54:27;;;;;;;65.43;28.05;;;-3.10;99.90;;;-146.41;100.00;57768.22;4958302;28;20051;-67
2022/03/05 05:56:55;;;;;;;62.58;27.42;;;-3.10;99.90;;;-146.41;100.00;57768.22;4958445;28;20051;-67
2022/03/05 05:59:22;;;;;;;60.42;27.05;;;-3.10;99.90;;;-146.41;100.00;57768.22;4947423;28;20057;-67
2022/03/05 06:01:49;;;;;;;62.22;27.77;;;-3.10;99.90;;;-146.41;100.00;57768.22;4961298;28;20637;-67
2022/03/05 06:04:16;;;;;;;60.35;27.88;;;-3.10;99.90;;;-146.41;100.00;57768.22;4954862;28;20073;-67
2022/03/05 06:06:43;;;;;;;58.25;26.45;;;-3.00;99.90;;;-146.41;100.00;57768.22;4960360;28;20047;-67
2022/03/05 06:09:10;;;;;;;62.13;27.50;;;-3.00;99.90;;;-146.41;100.00;57768.22;4963455;28;20510;-67
2022/03/05 06:11:37;;;;;;;57.17;26.38;;;-3.00;99.90;;;-146.41;100.00;57768.22;4959208;28;20133;-67
2022/03/05 06:14:06;;;;;;;55.70;25.70;;;-3.00;99.90;;;-146.41;100.00;57768.22;4959852;28;20075;-67
2022/03/05 06:16:34;;;;;;;54.28;25.05;;;-3.00;99.90;;;-146.41;100.00;57768.22;4963771;28;20083;-67
2022/03/05 06:19:01;;;;;;;54.92;24.75;;;-2.90;99.90;;;-146.41;100.00;57768.22;4954610;28;20286;-67
2022/03/05 06:21:28;;;;;;;59.15;27.75;;;-3.00;99.90;;;-146.41;100.00;57768.22;4956571;28;20141;-66
2022/03/05 06:23:55;;;;;;;57.88;27.55;;;-3.00;99.90;;;-146.41;100.00;57768.22;4959239;28;20130;-67
2022/03/05 06:26:22;;;;;;;58.03;26.73;;;-3.00;99.90;;;-146.41;100.00;57768.22;4959617;28;20130;-67
2022/03/05 06:28:49;;;;;;;63.35;26.50;;;-3.10;99.90;;;-146.41;100.00;57768.22;4957811;28;20479;-67
2022/03/05 06:31:16;;;;;;;60.75;27.55;;;-3.10;99.90;;;-146.41;100.00;57768.22;4953673;28;20071;-67
2022/03/05 06:33:44;;;;;;;68.65;27.85;;;-3.10;99.90;;;-146.41;100.00;57768.22;4962242;28;20051;-67
2022/03/05 06:36:11;;;;;;;61.13;28.92;;;-3.00;99.90;;;-146.41;100.00;57768.22;4957216;28;20047;-67
2022/03/05 06:38:44;;;;;;;61.05;27.17;;;-3.00;99.90;;;-146.41;100.00;57768.22;4957009;28;20075;-67
2022/03/05 06:41:12;;;;;;;64.00;27.23;;;-2.90;99.90;;;-146.41;100.00;57768.22;4955089;28;20051;-67
2022/03/05 06:43:38;;;;;;;63.05;28.48;;;-2.90;99.90;;;-146.41;100.00;57768.22;4957243;28;20085;-67
2022/03/05 06:46:05;;;;;;;63.50;28.50;;;-2.90;99.90;;;-146.41;100.00;57768.22;4956082;28;20193;-67
2022/03/05 06:48:33;;;;;;;58.00;27.35;;;-2.80;99.90;;;-146.41;100.00;57768.22;4943722;28;20050;-67
2022/03/05 06:51:01;;;;;;;60.47;27.00;;;-2.80;99.90;;;-146.41;100.00;57768.22;4958374;28;20113;-67
2022/03/05 06:53:28;;;;;;;66.00;29.25;;;-2.70;99.90;;;-146.41;100.00;57768.22;4955682;28;20088;-67
2022/03/05 06:55:55;;;;;;;66.05;27.95;;;-2.70;99.90;;;-146.41;100.00;57768.22;4958712;28;20409;-67
2022/03/05 06:58:22;;;;;;;63.30;26.77;;;-2.70;99.90;;;-146.41;100.00;57768.22;4961735;28;20454;-67
2022/03/05 07:00:49;;;;;;;66.18;29.83;;;-2.70;99.90;;;-146.41;100.00;57768.22;4945424;28;20066;-67
2022/03/05 07:03:17;;;;;;;67.43;27.52;;;-2.60;99.90;;;-146.41;100.00;57768.22;4958205;28;20413;-67
2022/03/05 07:05:44;;;;;;;62.28;26.48;;;-2.60;99.90;;;-146.41;100.00;57768.22;4959203;28;20050;-67
2022/03/05 07:08:11;;;;;;;64.80;28.20;;;-2.60;99.90;;;-146.41;100.00;57768.22;4958274;28;20074;-67
2022/03/05 07:10:38;;;;;;;58.17;27.00;;;-2.60;99.90;;;-146.41;100.00;57768.22;4962962;28;20089;-67
2022/03/05 07:13:05;;;;;;;62.65;27.92;;;-2.50;99.90;;;-146.41;100.00;57768.22;4959983;28;20174;-67
2022/03/05 07:15:32;;;;;;;54.55;26.45;;;-2.40;99.90;;;-146.41;100.00;57768.22;4959317;28;20054;-67
2022/03/05 07:17:59;;;;;;;60.58;26.75;;;-2.30;99.90;;;-146.41;100.00;57768.22;4945611;28;20497;-67
2022/03/05 07:20:26;;;;;;;53.55;25.98;;;-2.30;99.90;;;-146.41;100.00;57768.22;4958925;28;20105;-67
2022/03/05 07:22:53;;;;;;;53.15;25.02;;;-2.20;99.90;;;-146.41;100.00;57768.22;4960435;28;20053;-67
2022/03/05 07:25:20;;;;;;;56.25;25.80;;;-2.10;99.90;;;-146.41;100.00;57768.22;4960187;28;20093;-67
2022/03/05 07:27:47;;;;;;;56.22;25.95;;;-2.00;99.90;;;-146.41;100.00;57768.22;4945455;28;20567;-67
2022/03/05 07:30:14;;;;;;;55.28;24.25;;;-1.90;99.90;;;-146.41;100.00;57768.22;4960667;28;20058;-67
2022/03/05 07:32:41;;;;;;;50.72;24.85;;;-1.80;99.90;;;-146.41;100.00;57768.22;4957576;28;20145;-67
2022/03/05 07:35:09;;;;;;;53.30;24.58;;;-1.70;99.90;;;-146.41;100.00;57768.22;4957077;28;20226;-67
2022/03/05 07:37:35;;;;;;;54.42;24.88;;;-1.70;99.90;;;-146.41;100.00;57768.22;4961851;28;20177;-67
2022/03/05 07:40:04;;;;;;;52.13;24.38;;;-1.60;99.90;;;-146.41;100.00;57768.22;4959400;28;20123;-67
2022/03/05 07:42:31;;;;;;;52.28;25.77;;;-1.50;99.90;;;-146.41;100.00;57768.22;4956766;28;20079;-67
2022/03/05 07:44:59;;;;;;;48.40;24.20;;;-1.30;99.90;;;-146.41;100.00;57768.22;4959142;28;20061;-67
2022/03/05 07:47:26;;;;;;;49.65;23.75;;;-1.20;99.90;;;-146.41;100.00;57768.22;4961480;28;20149;-67
2022/03/05 07:49:53;;;;;;;47.88;22.52;;;-0.90;99.90;;;-146.41;100.00;57768.22;4961149;28;20486;-67
2022/03/05 07:52:20;;;;;;;43.33;20.70;;;-0.50;99.90;;;-146.41;100.00;57768.22;4957819;28;20273;-67
2022/03/05 07:54:47;;;;;;;43.22;19.65;;;-0.10;99.90;;;-146.41;100.00;57768.22;4958501;28;20089;-67
2022/03/05 07:57:14;;;;;;;40.47;18.33;;;0.40;99.90;;;-146.41;100.00;57768.22;4957667;28;20405;-67
2022/03/05 07:59:41;;;;;;;39.17;17.42;;;0.90;99.90;;;-146.41;100.00;57768.22;4942432;28;20130;-67
2022/03/05 08:02:10;;;;;;;36.55;18.45;;;1.40;99.90;;;-146.41;100.00;57768.22;4941483;28;20116;-67
2022/03/05 08:04:37;;;;;;;34.28;17.75;;;1.90;99.90;;;-146.41;100.00;57768.22;4958177;28;20428;-68
2022/03/05 08:07:24;;;;;;;31.02;17.08;;;2.20;99.90;;;-146.41;100.00;57768.22;4947086;28;20407;-68
2022/03/05 08:09:51;;;;;;;33.00;17.67;;;2.70;99.90;;;-146.41;100.00;57768.22;4945584;28;20074;-65
2022/03/05 08:12:19;;;;;;;32.47;16.80;;;2.80;99.90;;;-146.41;100.00;57768.22;4956502;28;20047;-68
2022/03/05 08:14:47;;;;;;;31.42;16.65;;;3.10;99.90;;;-146.41;100.00;57768.22;4956019;28;20043;-66
2022/03/05 08:17:14;;;;;;;33.65;17.30;;;3.50;99.90;;;-146.41;100.00;57768.22;4960523;28;20051;-66
2022/03/05 08:19:42;;;;;;;28.58;16.95;;;3.70;99.90;;;-146.41;100.00;57768.22;4958985;28;20078;-66
2022/03/05 08:22:21;;;;;;;26.45;15.75;;;;;;;-146.41;100.00;57768.22;4955885;28;20440;-66
2022/03/05 08:24:48;;;;;;;27.88;16.40;;;;;;;-146.41;100.00;57768.22;4958665;28;20127;-66
2022/03/05 08:27:16;;;;;;;27.00;15.70;;;;;;;-146.41;100.00;57768.22;4959853;28;20137;-66
2022/03/05 08:29:44;;;;;;;25.98;15.68;;;;;;;-146.41;100.00;57768.22;4962374;28;20086;-66
2022/03/05 08:32:12;;;;;;;23.80;14.68;;;;;;;-146.41;100.00;57768.22;4959781;28;20539;-66
2022/03/05 08:34:40;;;;;;;26.27;15.68;;;;;;;-146.41;100.00;57768.22;4956788;28;20068;-66
2022/03/05 08:37:07;;;;;;;26.40;15.15;;;;;;;-146.41;100.00;57768.22;4956444;28;20199;-66
2022/03/05 08:39:35;;;;;;;22.48;15.10;;;;;;;-146.41;100.00;57768.22;4952402;28;20062;-66
2022/03/05 08:42:03;;;;;;;29.65;17.35;;;;;;;-146.41;100.00;57768.22;4958394;28;20129;-66
2022/03/05 08:44:31;;;;;;;29.60;18.50;;;;;;;-146.41;100.00;57768.22;4955233;28;20968;-66
2022/03/05 08:46:59;;;;;;;28.23;17.52;;;;;;;-146.41;100.00;57768.22;4959516;28;20059;-66
2022/03/05 08:49:26;;;;;;;28.58;18.25;;;;;;;-146.41;100.00;57768.22;4962083;28;20097;-66
2022/03/05 08:51:54;;;;;;;36.55;19.50;;;;;;;-146.41;100.00;57768.22;4959858;28;20133;-66
2022/03/05 08:54:21;;;;;;;27.63;17.48;;;;;;;-146.41;100.00;57768.22;4956892;28;20059;-66
2022/03/05 08:56:49;;;;;;;27.80;16.90;;;;;;;-146.41;100.00;57768.22;4959362;28;20038;-66
2022/03/05 08:59:17;;;;;;;32.30;17.85;;;;;;;-146.41;100.00;57768.22;4963101;28;20139;-66
2022/03/05 09:01:45;;;;;;;28.33;18.00;;;;;;;-146.41;100.00;57768.22;4944226;28;20142;-66
2022/03/05 09:04:13;;;;;;;23.92;15.10;;;;;;;-146.41;100.00;57768.22;4939852;28;20645;-66
2022/03/05 09:06:40;;;;;;;23.23;14.38;;;;;;;-146.41;100.00;57768.22;4960793;28;20055;-66
2022/03/05 09:09:08;;;;;;;21.88;12.93;;;;;;;-146.41;100.00;57768.22;4951150;28;20134;-66
2022/03/05 09:11:37;;;;;;;24.13;13.88;;;;;;;-146.41;100.00;57768.22;4942352;28;20150;-66
2022/03/05 09:14:06;;;;;;;19.23;12.25;;;;;;;-146.41;100.00;57768.22;4962218;28;20059;-66
2022/03/05 09:16:38;;;;;;;16.42;11.25;;;;;;;-146.41;100.00;57768.22;4962910;28;20169;-66
2022/03/05 09:19:06;;;;;;;25.15;16.20;;;;;;;-146.41;100.00;57768.22;4962379;28;20043;-66
2022/03/05 09:21:35;;;;;;;26.23;17.08;;;;;;;-146.41;100.00;57768.22;4947987;28;20127;-66
2022/03/05 09:24:06;;;;;;;28.10;17.63;;;;;;;-146.41;100.00;57768.22;4959861;28;20094;-66
2022/03/05 09:26:34;;;;;;;26.65;16.88;;;;;;;-146.41;100.00;57768.22;4951455;28;20046;-66
2022/03/05 09:29:01;;;;;;;26.55;16.42;;;;;;;-146.41;100.00;57768.22;4959714;28;20211;-66
2022/03/05 09:31:28;;;;;;;27.38;16.90;;;;;;;-146.41;100.00;57768.22;4962549;28;20182;-65
2022/03/05 09:33:56;;;;;;;28.73;16.48;;;;;;;-146.41;100.00;57768.22;4960091;28;20083;-65
2022/03/05 09:36:23;;;;;;;28.67;17.67;;;;;;;-146.41;100.00;57768.22;4956839;28;20055;-65
2022/03/05 09:38:50;;;;;;;30.55;15.73;;;;;;;-146.41;100.00;57768.22;4956430;28;20330;-65
2022/03/05 09:41:18;;;;;;;27.90;15.55;;;;;;;-146.41;100.00;57768.22;4950418;29;20463;-65
2022/03/05 09:43:45;;;;;;;21.77;12.23;;;;;;;-146.41;100.00;57768.22;4958186;28;20134;-65
2022/03/05 09:46:12;;;;;;;24.98;13.82;;;;;;;-146.41;100.00;57768.22;4960554;28;20133;-65
2022/03/05 09:48:41;;;;;;;25.15;13.40;;;;;;;-146.41;100.00;57768.22;4961271;28;20079;-65
2022/03/05 09:51:08;;;;;;;22.77;13.75;;;;;;;-146.41;100.00;57768.22;4958517;28;20133;-66
2022/03/05 09:53:36;;;;;;;26.85;13.38;;;;;;;-146.41;100.00;57768.22;4960028;28;20138;-66
2022/03/05 09:56:04;;;;;;;22.38;12.68;;;;;;;-146.41;100.00;57768.22;4961273;28;20130;-65
2022/03/05 09:58:47;;;;;;;23.80;13.60;;;;;;;-146.41;100.00;57768.22;4951448;28;20054;-66
2022/03/05 10:01:16;;;;;;;24.30;13.45;;;;;;;-146.41;100.00;57768.22;4954521;28;20357;-65
2022/03/05 10:03:55;;;;;;;23.83;11.85;;;;;;;-146.41;100.00;57768.22;4963903;28;20051;-66
2022/03/05 10:06:26;;;;;;;19.67;11.45;;;;;;;-146.41;100.00;57768.22;4949215;28;20090;-66